createdAt,value
2019-03-30T00:00:54.252Z,87.15
2019-03-30T00:01:54.177Z,87.35
2019-03-30T00:02:54.168Z,87.04
2019-03-30T00:03:54.204Z,87.15
2019-03-30T00:04:54.140Z,86.94
2019-03-30T00:05:54.131Z,87.15
2019-03-30T00:06:54.165Z,86.94
2019-03-30T00:07:54.113Z,87.04
2019-03-30T00:08:54.098Z,87.35
2019-03-30T00:09:54.086Z,86.94
2019-03-30T00:10:54.076Z,86.83
2019-03-30T00:11:54.062Z,87.15
2019-03-30T00:12:54.105Z,86.94
2019-03-30T00:13:54.042Z,86.63
2019-03-30T00:14:54.034Z,86.32
2019-03-30T00:15:54.019Z,86.21
2019-03-30T00:16:54.011Z,86.32
2019-03-30T00:17:53.995Z,86.63
2019-03-30T00:18:54.057Z,86.63
2019-03-30T00:19:53.980Z,87.15
2019-03-30T00:20:53.999Z,86.83
2019-03-30T00:21:53.947Z,86.88
2019-03-30T00:22:53.941Z,86.88
2019-03-30T00:23:53.926Z,86.94
2019-03-30T00:24:53.979Z,86.98
2019-03-30T00:25:53.907Z,87.66
2019-03-30T00:26:53.902Z,87.25
2019-03-30T00:27:53.888Z,87.04
2019-03-30T00:28:53.872Z,86.52
2019-03-30T00:29:53.862Z,86.63
2019-03-30T00:30:53.921Z,86.83
2019-03-30T00:31:53.838Z,86.63
2019-03-30T00:32:53.830Z,86.63
2019-03-30T00:33:53.819Z,86.32
2019-03-30T00:34:53.806Z,86.52
2019-03-30T00:35:53.797Z,86.63
2019-03-30T00:36:53.824Z,86.42
2019-03-30T00:37:53.769Z,86.52
2019-03-30T00:38:53.812Z,86.52
2019-03-30T00:39:53.748Z,86.63
2019-03-30T00:40:53.744Z,86.73
2019-03-30T00:41:53.726Z,86.42
2019-03-30T00:42:53.746Z,86.52
2019-03-30T00:43:53.704Z,86.32
2019-03-30T00:44:53.715Z,86.32
2019-03-30T00:45:53.711Z,86.42
2019-03-30T00:46:53.677Z,86.32
2019-03-30T00:47:53.659Z,86.32
2019-03-30T00:48:53.713Z,86.63
2019-03-30T00:49:53.645Z,86.63
2019-03-30T00:50:53.674Z,86.52
2019-03-30T00:51:53.625Z,86.63
2019-03-30T00:52:53.616Z,86.83
2019-03-30T00:53:53.597Z,86.67
2019-03-30T00:54:53.633Z,86.67
2019-03-30T00:55:53.574Z,86.67
2019-03-30T00:56:53.560Z,87.12
2019-03-30T00:57:53.550Z,86.98
2019-03-30T00:58:53.551Z,87.23
2019-03-30T00:59:53.588Z,87.12
2019-03-30T01:00:53.549Z,87.12
2019-03-30T01:01:53.508Z,87.23
2019-03-30T01:02:53.496Z,87.43
2019-03-30T01:03:53.489Z,87.16
2019-03-30T01:04:53.478Z,87.47
2019-03-30T01:05:53.469Z,87.88
2019-03-30T01:06:53.492Z,87.78
2019-03-30T01:07:53.442Z,87.88
2019-03-30T01:08:53.434Z,87.78
2019-03-30T01:09:53.435Z,87.78
2019-03-30T01:10:53.406Z,88.09
2019-03-30T01:11:53.403Z,87.68
2019-03-30T01:12:53.410Z,87.47
2019-03-30T01:13:53.373Z,87.93
2019-03-30T01:14:53.368Z,87.99
2019-03-30T01:15:53.354Z,87.99
2019-03-30T01:16:53.341Z,88.61
2019-03-30T01:17:53.332Z,88.71
2019-03-30T01:18:53.356Z,88.96
2019-03-30T01:20:02.845Z,88.76
2019-03-30T01:20:54.297Z,88.86
2019-03-30T01:21:56.069Z,88.86
2019-03-30T01:22:53.277Z,88.61
2019-03-30T01:23:53.264Z,88.55
2019-03-30T01:24:53.319Z,88.55
2019-03-30T01:25:53.245Z,88.13
2019-03-30T01:26:53.234Z,88.55
2019-03-30T01:27:53.238Z,88.34
2019-03-30T01:28:53.217Z,88.39
2019-03-30T01:29:53.209Z,88.28
2019-03-30T01:30:53.420Z,88.48
2019-03-30T01:31:53.181Z,88.69
2019-03-30T01:32:53.170Z,88.48
2019-03-30T01:33:53.153Z,88.79
2019-03-30T01:34:53.149Z,88.79
2019-03-30T01:35:53.134Z,88.90
2019-03-30T01:36:53.188Z,88.90
2019-03-30T01:37:53.119Z,89.21
2019-03-30T01:38:53.099Z,88.79
2019-03-30T01:39:53.092Z,89.56
2019-03-30T01:40:53.082Z,89.31
2019-03-30T01:41:53.066Z,89.25
2019-03-30T01:42:53.101Z,89.62
2019-03-30T01:43:53.044Z,89.94
2019-03-30T01:44:53.100Z,89.62
2019-03-30T01:45:53.023Z,90.50
2019-03-30T01:46:53.026Z,90.39
2019-03-30T01:47:52.997Z,90.60
2019-03-30T01:48:53.018Z,90.14
2019-03-30T01:49:52.984Z,90.50
2019-03-30T01:50:52.972Z,90.14
2019-03-30T01:51:52.989Z,90.25
2019-03-30T01:52:52.945Z,90.25
2019-03-30T01:53:52.983Z,90.04
2019-03-30T01:54:52.963Z,90.45
2019-03-30T01:55:52.921Z,90.35
2019-03-30T01:56:52.914Z,90.14
2019-03-30T01:57:52.892Z,90.20
2019-03-30T01:58:52.876Z,90.31
2019-03-30T01:59:52.871Z,90.20
2019-03-30T02:00:52.941Z,90.20
2019-03-30T02:01:52.845Z,90.41
2019-03-30T02:02:52.831Z,90.41
2019-03-30T02:03:52.831Z,90.41
2019-03-30T02:04:52.811Z,89.58
2019-03-30T02:05:52.804Z,88.96
2019-03-30T02:06:52.842Z,88.86
2019-03-30T02:07:52.775Z,89.17
2019-03-30T02:08:52.766Z,88.55
2019-03-30T02:09:52.775Z,88.86
2019-03-30T02:10:52.747Z,89.17
2019-03-30T02:11:52.740Z,89.13
2019-03-30T02:12:52.761Z,88.40
2019-03-30T02:13:52.758Z,88.76
2019-03-30T02:14:52.702Z,88.65
2019-03-30T02:15:52.693Z,88.55
2019-03-30T02:16:52.674Z,88.65
2019-03-30T02:17:52.675Z,88.55
2019-03-30T02:18:52.708Z,88.59
2019-03-30T02:19:52.645Z,88.90
2019-03-30T02:20:52.634Z,88.28
2019-03-30T02:21:52.628Z,88.69
2019-03-30T02:22:52.614Z,89.42
2019-03-30T02:23:52.604Z,89.31
2019-03-30T02:24:52.654Z,89.52
2019-03-30T02:25:52.579Z,89.52
2019-03-30T02:26:52.570Z,89.11
2019-03-30T02:27:52.564Z,89.52
2019-03-30T02:28:52.546Z,89.73
2019-03-30T02:29:52.533Z,89.52
2019-03-30T02:30:52.588Z,89.11
2019-03-30T02:31:52.522Z,89.21
2019-03-30T02:32:52.512Z,89.52
2019-03-30T02:33:52.488Z,89.42
2019-03-30T02:34:52.484Z,89.62
2019-03-30T02:35:52.473Z,90.14
2019-03-30T02:36:52.486Z,89.73
2019-03-30T02:37:52.482Z,89.62
2019-03-30T02:38:52.440Z,89.52
2019-03-30T02:39:52.443Z,90.35
2019-03-30T02:40:52.415Z,90.45
2019-03-30T02:41:52.410Z,90.45
2019-03-30T02:42:52.434Z,90.56
2019-03-30T02:43:52.382Z,90.35
2019-03-30T02:44:52.384Z,90.35
2019-03-30T02:45:52.379Z,90.45
2019-03-30T02:46:52.343Z,90.45
2019-03-30T02:47:52.338Z,90.14
2019-03-30T02:48:52.352Z,90.35
2019-03-30T02:49:52.312Z,90.14
2019-03-30T02:50:52.314Z,90.45
2019-03-30T02:51:52.287Z,90.35
2019-03-30T02:52:52.282Z,90.14
2019-03-30T02:53:52.275Z,90.35
2019-03-30T02:54:52.291Z,90.14
2019-03-30T02:55:52.249Z,90.04
2019-03-30T02:56:52.266Z,90.14
2019-03-30T02:57:52.233Z,90.45
2019-03-30T02:58:52.211Z,90.39
2019-03-30T02:59:52.205Z,90.60
2019-03-30T03:00:52.247Z,90.50
2019-03-30T03:01:52.176Z,90.45
2019-03-30T03:02:52.220Z,90.19
2019-03-30T03:03:52.161Z,90.19
2019-03-30T03:04:52.153Z,90.39
2019-03-30T03:05:52.136Z,90.19
2019-03-30T03:06:52.173Z,90.19
2019-03-30T03:07:52.116Z,90.29
2019-03-30T03:08:52.107Z,90.50
2019-03-30T03:09:52.111Z,90.39
2019-03-30T03:10:52.094Z,90.25
2019-03-30T03:11:52.072Z,90.29
2019-03-30T03:12:52.152Z,90.19
2019-03-30T03:13:52.048Z,90.50
2019-03-30T03:14:52.040Z,90.19
2019-03-30T03:15:52.177Z,90.19
2019-03-30T03:16:52.026Z,90.19
2019-03-30T03:17:52.041Z,90.39
2019-03-30T03:18:52.041Z,90.39
2019-03-30T03:19:51.988Z,90.08
2019-03-30T03:21:06.677Z,90.29
2019-03-30T03:21:52.966Z,90.50
2019-03-30T03:22:51.952Z,90.50
2019-03-30T03:23:51.937Z,90.39
2019-03-30T03:24:52.010Z,90.39
2019-03-30T03:25:51.917Z,90.39
2019-03-30T03:26:51.915Z,90.50
2019-03-30T03:27:51.900Z,90.39
2019-03-30T03:28:51.883Z,90.60
2019-03-30T03:29:51.879Z,90.50
2019-03-30T03:30:51.920Z,90.19
2019-03-30T03:31:51.851Z,90.44
2019-03-30T03:32:52.157Z,90.60
2019-03-30T03:33:51.828Z,90.08
2019-03-30T03:34:51.820Z,89.67
2019-03-30T03:35:51.806Z,89.56
2019-03-30T03:36:51.839Z,89.56
2019-03-30T03:37:51.787Z,89.46
2019-03-30T03:38:51.786Z,89.15
2019-03-30T03:39:51.810Z,89.56
2019-03-30T03:40:51.751Z,89.67
2019-03-30T03:41:51.743Z,89.81
2019-03-30T03:42:51.782Z,89.50
2019-03-30T03:43:51.719Z,90.23
2019-03-30T03:44:51.710Z,90.54
2019-03-30T03:45:51.721Z,90.12
2019-03-30T03:46:51.689Z,90.27
2019-03-30T03:47:51.680Z,90.23
2019-03-30T03:48:51.719Z,89.50
2019-03-30T03:49:51.662Z,89.75
2019-03-30T03:50:51.643Z,90.69
2019-03-30T03:51:51.658Z,90.58
2019-03-30T03:52:51.622Z,90.37
2019-03-30T03:53:51.705Z,90.89
2019-03-30T03:54:51.633Z,90.69
2019-03-30T03:55:51.591Z,91.00
2019-03-30T03:56:51.581Z,91.31
2019-03-30T03:57:51.598Z,91.10
2019-03-30T03:58:51.592Z,91.52
2019-03-30T03:59:51.556Z,91.78
2019-03-30T04:00:51.586Z,92.10
2019-03-30T04:01:51.528Z,91.47
2019-03-30T04:02:51.513Z,90.85
2019-03-30T04:03:51.506Z,91.37
2019-03-30T04:04:51.530Z,91.27
2019-03-30T04:05:51.490Z,90.95
2019-03-30T04:06:51.508Z,91.06
2019-03-30T04:07:51.466Z,91.06
2019-03-30T04:08:51.449Z,91.16
2019-03-30T04:09:51.447Z,90.95
2019-03-30T04:10:51.427Z,91.27
2019-03-30T04:11:51.445Z,90.81
2019-03-30T04:12:51.460Z,90.60
2019-03-30T04:13:51.393Z,90.60
2019-03-30T04:14:51.389Z,91.16
2019-03-30T04:15:51.368Z,90.81
2019-03-30T04:16:51.365Z,90.91
2019-03-30T04:17:51.362Z,90.91
2019-03-30T04:18:51.402Z,90.75
2019-03-30T04:19:51.375Z,89.67
2019-03-30T04:20:51.320Z,89.40
2019-03-30T04:21:51.310Z,89.09
2019-03-30T04:22:51.296Z,89.23
2019-03-30T04:23:54.201Z,89.03
2019-03-30T04:24:51.586Z,89.54
2019-03-30T04:25:51.271Z,90.58
2019-03-30T04:26:51.290Z,90.62
2019-03-30T04:27:51.250Z,90.93
2019-03-30T04:28:51.231Z,91.24
2019-03-30T04:29:51.220Z,91.45
2019-03-30T04:30:51.258Z,91.35
2019-03-30T04:31:51.201Z,91.52
2019-03-30T04:32:51.215Z,91.93
2019-03-30T04:33:51.221Z,91.31
2019-03-30T04:34:51.175Z,91.62
2019-03-30T04:35:51.157Z,91.10
2019-03-30T04:36:51.191Z,91.37
2019-03-30T04:37:51.141Z,91.53
2019-03-30T04:38:51.127Z,90.85
2019-03-30T04:39:51.117Z,90.12
2019-03-30T04:40:51.131Z,90.23
2019-03-30T04:41:51.098Z,89.98
2019-03-30T04:42:51.154Z,90.12
2019-03-30T04:43:51.061Z,89.71
2019-03-30T04:44:51.061Z,90.23
2019-03-30T04:45:51.050Z,90.39
2019-03-30T04:46:51.077Z,90.54
2019-03-30T04:47:51.027Z,90.33
2019-03-30T04:48:51.040Z,90.33
2019-03-30T04:49:51.048Z,90.23
2019-03-30T04:50:50.990Z,90.54
2019-03-30T04:51:57.521Z,90.02
2019-03-30T04:52:51.972Z,89.98
2019-03-30T04:53:50.966Z,90.54
2019-03-30T04:54:51.013Z,90.44
2019-03-30T04:55:50.940Z,90.44
2019-03-30T04:56:50.945Z,90.23
2019-03-30T04:57:50.920Z,90.23
2019-03-30T04:58:50.903Z,90.44
2019-03-30T04:59:50.895Z,90.48
2019-03-30T05:00:50.964Z,90.58
2019-03-30T05:01:50.880Z,90.64
2019-03-30T05:02:50.873Z,90.44
2019-03-30T05:03:50.846Z,90.37
2019-03-30T05:04:50.838Z,90.33
2019-03-30T05:05:50.830Z,90.44
2019-03-30T05:06:50.846Z,90.89
2019-03-30T05:07:50.810Z,90.79
2019-03-30T05:08:50.792Z,90.89
2019-03-30T05:09:50.793Z,91.00
2019-03-30T05:10:50.782Z,91.06
2019-03-30T05:11:50.764Z,91.10
2019-03-30T05:12:51.061Z,90.89
2019-03-30T05:13:50.737Z,90.69
2019-03-30T05:14:50.750Z,91.20
2019-03-30T05:15:50.721Z,91.10
2019-03-30T05:16:50.714Z,90.89
2019-03-30T05:17:50.703Z,91.20
2019-03-30T05:18:50.740Z,91.00
2019-03-30T05:19:50.677Z,91.00
2019-03-30T05:20:50.663Z,91.20
2019-03-30T05:21:50.709Z,91.00
2019-03-30T05:22:51.439Z,91.10
2019-03-30T05:23:50.637Z,91.72
2019-03-30T05:24:50.652Z,91.83
2019-03-30T05:25:50.611Z,92.30
2019-03-30T05:26:50.606Z,92.55
2019-03-30T05:27:50.587Z,92.41
2019-03-30T05:28:50.640Z,92.10
2019-03-30T05:29:50.568Z,91.78
2019-03-30T05:30:50.754Z,91.58
2019-03-30T05:31:50.553Z,91.16
2019-03-30T05:33:04.692Z,91.33
2019-03-30T05:33:51.522Z,90.70
2019-03-30T05:34:50.515Z,90.64
2019-03-30T05:35:50.537Z,90.60
2019-03-30T05:36:50.544Z,90.60
2019-03-30T05:37:50.489Z,90.39
2019-03-30T05:38:50.466Z,90.60
2019-03-30T05:39:50.461Z,90.39
2019-03-30T05:40:50.454Z,90.70
2019-03-30T05:41:50.439Z,90.60
2019-03-30T05:42:50.499Z,90.39
2019-03-30T05:43:50.409Z,90.50
2019-03-30T05:44:50.401Z,90.19
2019-03-30T05:45:50.385Z,90.39
2019-03-30T05:46:50.379Z,90.70
2019-03-30T05:47:50.369Z,90.60
2019-03-30T05:48:50.428Z,90.19
2019-03-30T05:49:50.347Z,90.39
2019-03-30T05:50:50.331Z,90.50
2019-03-30T05:51:50.325Z,90.25
2019-03-30T05:52:50.318Z,90.45
2019-03-30T05:53:50.312Z,90.14
2019-03-30T05:54:50.324Z,90.14
2019-03-30T05:55:50.288Z,90.25
2019-03-30T05:56:50.266Z,90.20
2019-03-30T05:57:50.255Z,90.25
2019-03-30T05:58:50.251Z,90.20
2019-03-30T05:59:50.236Z,90.41
2019-03-30T06:00:50.269Z,89.69
2019-03-30T06:01:50.212Z,89.48
2019-03-30T06:02:50.223Z,88.86
2019-03-30T06:03:50.193Z,89.28
2019-03-30T06:04:50.176Z,88.96
2019-03-30T06:05:50.206Z,88.71
2019-03-30T06:06:50.199Z,89.03
2019-03-30T06:07:50.144Z,88.92
2019-03-30T06:08:50.142Z,89.13
2019-03-30T06:09:50.130Z,88.71
2019-03-30T06:10:50.118Z,88.82
2019-03-30T06:11:50.128Z,89.13
2019-03-30T06:12:50.124Z,89.03
2019-03-30T06:13:50.082Z,89.03
2019-03-30T06:14:50.089Z,88.98
2019-03-30T06:15:50.062Z,89.03
2019-03-30T06:16:50.050Z,88.46
2019-03-30T06:17:50.037Z,89.03
2019-03-30T06:18:50.100Z,89.09
2019-03-30T06:19:50.017Z,88.88
2019-03-30T06:20:50.016Z,88.53
2019-03-30T06:21:49.999Z,88.53
2019-03-30T06:22:49.992Z,88.43
2019-03-30T06:23:49.970Z,88.53
2019-03-30T06:24:50.029Z,88.12
2019-03-30T06:25:49.968Z,88.18
2019-03-30T06:26:49.949Z,88.39
2019-03-30T06:27:49.927Z,88.39
2019-03-30T06:28:49.972Z,88.70
2019-03-30T06:29:49.917Z,88.07
2019-03-30T06:30:49.935Z,88.34
2019-03-30T06:31:49.886Z,88.24
2019-03-30T06:32:49.893Z,88.34
2019-03-30T06:33:49.857Z,88.31
2019-03-30T06:34:49.850Z,88.51
2019-03-30T06:35:49.835Z,88.71
2019-03-30T06:36:49.858Z,87.65
2019-03-30T06:37:49.914Z,87.58
2019-03-30T06:38:49.801Z,87.34
2019-03-30T06:39:49.789Z,87.44
2019-03-30T06:40:49.784Z,86.68
2019-03-30T06:41:49.778Z,86.98
2019-03-30T06:42:49.806Z,86.88
2019-03-30T06:43:49.754Z,86.94
2019-03-30T06:44:49.738Z,86.94
2019-03-30T06:45:49.749Z,86.80
2019-03-30T06:46:49.766Z,86.60
2019-03-30T06:47:49.702Z,86.04
2019-03-30T06:48:49.734Z,86.45
2019-03-30T06:49:49.685Z,86.45
2019-03-30T06:50:49.671Z,85.79
2019-03-30T06:51:49.676Z,85.86
2019-03-30T06:52:57.336Z,85.34
2019-03-30T06:53:50.807Z,85.10
2019-03-30T06:54:49.665Z,84.58
2019-03-30T06:55:49.624Z,84.23
2019-03-30T06:56:49.613Z,83.92
2019-03-30T06:57:49.592Z,83.41
2019-03-30T06:58:49.591Z,83.99
2019-03-30T06:59:49.652Z,84.09
2019-03-30T07:00:49.573Z,84.09
2019-03-30T07:01:49.558Z,83.75
2019-03-30T07:02:49.547Z,83.44
2019-03-30T07:03:49.602Z,83.33
2019-03-30T07:04:49.527Z,83.23
2019-03-30T07:05:49.601Z,82.82
2019-03-30T07:06:49.507Z,82.99
2019-03-30T07:07:49.518Z,83.29
2019-03-30T07:08:49.479Z,83.40
2019-03-30T07:09:49.463Z,82.89
2019-03-30T07:10:49.472Z,83.05
2019-03-30T07:11:49.479Z,83.15
2019-03-30T07:12:49.429Z,82.64
2019-03-30T07:13:49.427Z,82.75
2019-03-30T07:14:49.408Z,82.91
2019-03-30T07:15:49.393Z,82.19
2019-03-30T07:16:49.397Z,82.70
2019-03-30T07:17:49.410Z,81.99
2019-03-30T07:18:49.380Z,81.68
2019-03-30T07:19:49.352Z,81.54
2019-03-30T07:20:49.399Z,81.02
2019-03-30T07:21:49.360Z,81.13
2019-03-30T07:22:51.235Z,81.23
2019-03-30T07:23:49.536Z,81.50
2019-03-30T07:24:49.294Z,82.42
2019-03-30T07:25:49.289Z,83.51
2019-03-30T07:26:49.272Z,83.00
2019-03-30T07:27:49.265Z,83.34
2019-03-30T07:28:49.258Z,84.03
2019-03-30T07:29:49.477Z,83.31
2019-03-30T07:30:49.245Z,83.82
2019-03-30T07:31:49.219Z,83.82
2019-03-30T07:32:49.229Z,84.12
2019-03-30T07:33:49.193Z,83.72
2019-03-30T07:34:49.183Z,83.61
2019-03-30T07:35:49.208Z,83.47
2019-03-30T07:36:49.167Z,82.59
2019-03-30T07:37:49.162Z,82.96
2019-03-30T07:38:49.141Z,82.45
2019-03-30T07:39:49.127Z,82.76
2019-03-30T07:40:49.117Z,81.52
2019-03-30T07:41:49.137Z,81.12
2019-03-30T07:42:49.216Z,81.29
2019-03-30T07:43:49.081Z,80.46
2019-03-30T07:44:49.074Z,80.05
2019-03-30T07:45:49.140Z,80.02
2019-03-30T07:46:49.147Z,79.82
2019-03-30T07:47:49.198Z,79.41
2019-03-30T07:48:49.036Z,78.34
2019-03-30T07:49:49.029Z,78.04
2019-03-30T07:50:49.012Z,78.61
2019-03-30T07:51:49.007Z,78.20
2019-03-30T07:52:49.004Z,77.45
2019-03-30T07:53:49.010Z,76.53
2019-03-30T07:54:49.009Z,75.17
2019-03-30T07:55:48.952Z,74.93
2019-03-30T07:56:48.937Z,74.42
2019-03-30T07:57:48.932Z,74.38
2019-03-30T07:58:48.930Z,73.23
2019-03-30T07:59:48.933Z,72.28
2019-03-30T08:00:48.896Z,71.26
2019-03-30T08:01:48.889Z,70.31
2019-03-30T08:02:48.870Z,69.70
2019-03-30T08:03:48.865Z,70.28
2019-03-30T08:04:48.870Z,69.76
2019-03-30T08:05:48.889Z,67.80
2019-03-30T08:06:48.834Z,67.90
2019-03-30T08:07:48.834Z,67.66
2019-03-30T08:08:48.816Z,65.60
2019-03-30T08:09:48.810Z,65.09
2019-03-30T08:10:48.789Z,63.16
2019-03-30T08:11:48.816Z,62.72
2019-03-30T08:12:48.762Z,61.60
2019-03-30T08:13:48.748Z,59.84
2019-03-30T08:14:48.744Z,60.97
2019-03-30T08:15:48.727Z,59.72
2019-03-30T08:16:48.717Z,60.63
2019-03-30T08:17:48.753Z,60.13
2019-03-30T08:18:48.695Z,58.91
2019-03-30T08:19:50.333Z,58.09
2019-03-30T08:20:48.679Z,58.40
2019-03-30T08:21:48.663Z,58.47
2019-03-30T08:22:48.650Z,58.27
2019-03-30T08:23:48.679Z,58.88
2019-03-30T08:24:48.628Z,58.88
2019-03-30T08:25:48.624Z,58.47
2019-03-30T08:26:48.627Z,57.66
2019-03-30T08:27:48.602Z,56.95
2019-03-30T08:28:48.601Z,57.12
2019-03-30T08:29:48.650Z,57.53
2019-03-30T08:30:48.570Z,58.45
2019-03-30T08:31:49.990Z,56.49
2019-03-30T08:32:48.562Z,55.98
2019-03-30T08:33:48.547Z,56.18
2019-03-30T08:34:48.514Z,56.90
2019-03-30T08:35:48.563Z,55.68
2019-03-30T08:36:48.508Z,55.37
2019-03-30T08:37:48.482Z,55.85
2019-03-30T08:38:48.469Z,54.66
2019-03-30T08:39:48.476Z,54.74
2019-03-30T08:40:48.457Z,55.15
2019-03-30T08:41:48.474Z,54.64
2019-03-30T08:42:48.423Z,54.74
2019-03-30T08:43:48.418Z,55.04
2019-03-30T08:44:48.412Z,53.60
2019-03-30T08:45:49.031Z,53.80
2019-03-30T08:46:48.381Z,54.11
2019-03-30T08:47:48.412Z,54.41
2019-03-30T08:48:48.353Z,53.07
2019-03-30T08:49:48.438Z,52.97
2019-03-30T08:50:48.335Z,53.47
2019-03-30T08:51:48.320Z,53.07
2019-03-30T08:52:48.321Z,53.78
2019-03-30T08:53:54.580Z,52.66
2019-03-30T08:54:49.356Z,53.47
2019-03-30T08:55:48.292Z,53.78
2019-03-30T08:56:48.266Z,53.75
2019-03-30T08:57:48.252Z,53.85
2019-03-30T08:58:48.256Z,54.05
2019-03-30T08:59:48.477Z,54.16
2019-03-30T09:00:48.251Z,53.05
2019-03-30T09:01:48.298Z,53.05
2019-03-30T09:02:48.195Z,52.13
2019-03-30T09:03:48.225Z,52.94
2019-03-30T09:04:48.174Z,53.02
2019-03-30T09:05:48.203Z,52.92
2019-03-30T09:06:48.162Z,51.20
2019-03-30T09:07:48.143Z,50.89
2019-03-30T09:08:48.361Z,51.68
2019-03-30T09:09:48.125Z,51.37
2019-03-30T09:10:48.122Z,51.37
2019-03-30T09:11:48.143Z,51.17
2019-03-30T09:12:48.091Z,50.06
2019-03-30T09:13:48.074Z,50.77
2019-03-30T09:14:48.086Z,50.26
2019-03-30T09:15:48.068Z,51.07
2019-03-30T09:16:48.059Z,51.28
2019-03-30T09:17:48.105Z,52.48
2019-03-30T09:18:48.030Z,51.76
2019-03-30T09:19:48.011Z,50.34
2019-03-30T09:20:48.023Z,50.21
2019-03-30T09:21:47.988Z,49.61
2019-03-30T09:22:47.980Z,48.80
2019-03-30T09:23:48.029Z,48.19
2019-03-30T09:24:47.955Z,48.90
2019-03-30T09:25:47.954Z,48.90
2019-03-30T09:26:48.034Z,49.71
2019-03-30T09:27:47.927Z,50.12
2019-03-30T09:28:47.904Z,48.30
2019-03-30T09:29:47.953Z,49.61
2019-03-30T09:30:47.927Z,49.71
2019-03-30T09:31:47.872Z,50.12
2019-03-30T09:32:47.862Z,49.79
2019-03-30T09:33:47.864Z,47.16
2019-03-30T09:34:47.852Z,46.76
2019-03-30T09:35:47.960Z,48.15
2019-03-30T09:36:47.953Z,47.44
2019-03-30T09:37:47.828Z,48.27
2019-03-30T09:38:47.795Z,47.54
2019-03-30T09:39:47.784Z,48.27
2019-03-30T09:40:47.780Z,46.84
2019-03-30T09:41:47.810Z,47.47
2019-03-30T09:42:47.751Z,48.96
2019-03-30T09:43:47.748Z,48.45
2019-03-30T09:44:47.737Z,47.02
2019-03-30T09:45:47.719Z,47.14
2019-03-30T09:46:47.704Z,47.02
2019-03-30T09:47:47.801Z,46.21
2019-03-30T09:48:47.721Z,47.14
2019-03-30T09:49:47.697Z,48.02
2019-03-30T09:50:47.743Z,47.92
2019-03-30T09:51:47.649Z,47.82
2019-03-30T09:52:47.645Z,47.12
2019-03-30T09:53:47.680Z,46.71
2019-03-30T09:54:47.625Z,46.99
2019-03-30T09:55:47.609Z,46.71
2019-03-30T09:56:47.595Z,47.52
2019-03-30T09:57:47.587Z,46.39
2019-03-30T09:58:47.579Z,45.68
2019-03-30T09:59:47.640Z,46.39
2019-03-30T10:00:47.556Z,46.59
2019-03-30T10:01:47.542Z,45.58
2019-03-30T10:02:47.554Z,47.09
2019-03-30T10:03:47.519Z,45.78
2019-03-30T10:04:47.547Z,46.49
2019-03-30T10:05:47.553Z,46.39
2019-03-30T10:06:47.487Z,46.87
2019-03-30T10:07:47.496Z,45.68
2019-03-30T10:08:47.463Z,45.58
2019-03-30T10:09:47.548Z,45.28
2019-03-30T10:10:47.449Z,45.38
2019-03-30T10:11:47.615Z,46.17
2019-03-30T10:12:47.430Z,46.17
2019-03-30T10:13:47.507Z,45.26
2019-03-30T10:14:47.454Z,44.83
2019-03-30T10:15:47.428Z,44.55
2019-03-30T10:16:48.794Z,44.83
2019-03-30T10:17:47.462Z,45.76
2019-03-30T10:18:47.385Z,45.94
2019-03-30T10:19:58.016Z,46.75
2019-03-30T10:20:48.338Z,44.63
2019-03-30T10:21:47.317Z,44.63
2019-03-30T10:22:47.402Z,44.71
2019-03-30T10:23:47.377Z,45.62
2019-03-30T10:24:47.290Z,45.32
2019-03-30T10:25:47.285Z,45.92
2019-03-30T10:26:47.274Z,45.70
2019-03-30T10:27:47.253Z,44.97
2019-03-30T10:28:47.300Z,44.39
2019-03-30T10:29:47.259Z,44.89
2019-03-30T10:30:47.281Z,44.69
2019-03-30T10:31:47.213Z,44.59
2019-03-30T10:32:47.199Z,44.31
2019-03-30T10:33:47.193Z,45.12
2019-03-30T10:34:47.198Z,44.89
2019-03-30T10:35:47.354Z,45.00
2019-03-30T10:36:47.152Z,42.98
2019-03-30T10:37:47.142Z,45.59
2019-03-30T10:38:47.130Z,45.07
2019-03-30T10:39:47.125Z,44.29
2019-03-30T10:40:47.110Z,44.69
2019-03-30T10:41:47.128Z,44.29
2019-03-30T10:42:47.098Z,42.96
2019-03-30T10:43:47.073Z,42.98
2019-03-30T10:44:47.063Z,43.26
2019-03-30T10:45:47.057Z,43.08
2019-03-30T10:46:47.038Z,43.76
2019-03-30T10:47:47.098Z,44.37
2019-03-30T10:48:47.016Z,44.17
2019-03-30T10:49:47.005Z,44.09
2019-03-30T10:50:46.994Z,43.36
2019-03-30T10:51:46.990Z,43.06
2019-03-30T10:52:46.974Z,44.17
2019-03-30T10:53:47.020Z,44.37
2019-03-30T10:54:52.897Z,42.96
2019-03-30T10:55:47.967Z,44.17
2019-03-30T10:56:46.954Z,42.15
2019-03-30T10:57:46.916Z,43.16
2019-03-30T10:58:46.964Z,43.14
2019-03-30T10:59:46.970Z,42.33
2019-03-30T11:00:46.899Z,41.43
2019-03-30T11:01:46.879Z,40.62
2019-03-30T11:02:46.876Z,41.53
2019-03-30T11:03:46.850Z,40.83
2019-03-30T11:04:46.842Z,41.13
2019-03-30T11:05:46.856Z,42.03
2019-03-30T11:06:46.828Z,42.52
2019-03-30T11:07:46.980Z,42.74
2019-03-30T11:08:46.858Z,41.51
2019-03-30T11:09:49.403Z,42.41
2019-03-30T11:10:46.777Z,42.72
2019-03-30T11:11:46.801Z,41.51
2019-03-30T11:12:46.755Z,42.44
2019-03-30T11:13:46.753Z,41.53
2019-03-30T11:14:46.876Z,41.53
2019-03-30T11:15:46.718Z,42.24
2019-03-30T11:16:46.714Z,42.94
2019-03-30T11:17:46.731Z,43.34
2019-03-30T11:18:46.696Z,43.76
2019-03-30T11:19:46.683Z,41.33
2019-03-30T11:20:47.163Z,39.42
2019-03-30T11:21:46.684Z,41.43
2019-03-30T11:22:46.641Z,41.33
2019-03-30T11:23:46.673Z,41.21
2019-03-30T11:24:46.895Z,42.01
2019-03-30T11:25:46.621Z,42.11
2019-03-30T11:26:46.594Z,40.50
2019-03-30T11:27:46.590Z,40.61
2019-03-30T11:28:46.643Z,40.70
2019-03-30T11:29:46.595Z,40.91
2019-03-30T11:30:46.546Z,40.70
2019-03-30T11:31:46.537Z,40.70
2019-03-30T11:32:46.544Z,39.90
2019-03-30T11:33:46.550Z,41.51
2019-03-30T11:34:46.517Z,40.69
2019-03-30T11:35:46.572Z,39.69
2019-03-30T11:36:46.495Z,39.00
2019-03-30T11:37:46.519Z,40.08
2019-03-30T11:38:46.460Z,39.58
2019-03-30T11:39:46.463Z,40.39
2019-03-30T11:40:46.446Z,40.48
2019-03-30T11:41:46.484Z,40.57
2019-03-30T11:42:46.424Z,39.34
2019-03-30T11:43:46.415Z,40.55
2019-03-30T11:44:46.451Z,38.94
2019-03-30T11:45:46.409Z,38.74
2019-03-30T11:46:46.415Z,38.36
2019-03-30T11:47:46.431Z,38.96
2019-03-30T11:48:46.397Z,38.36
2019-03-30T11:49:46.344Z,39.76
2019-03-30T11:50:46.355Z,38.44
2019-03-30T11:51:46.312Z,39.54
2019-03-30T11:52:46.306Z,38.74
2019-03-30T11:53:46.401Z,39.14
2019-03-30T11:54:46.305Z,38.64
2019-03-30T11:55:46.280Z,38.44
2019-03-30T11:56:46.258Z,38.32
2019-03-30T11:57:46.248Z,37.92
2019-03-30T11:58:46.242Z,38.53
2019-03-30T11:59:46.261Z,38.53
2019-03-30T12:00:46.255Z,39.03
2019-03-30T12:01:46.213Z,39.23
2019-03-30T12:02:46.250Z,38.32
2019-03-30T12:03:46.190Z,38.02
2019-03-30T12:04:46.186Z,37.82
2019-03-30T12:05:46.340Z,39.53
2019-03-30T12:06:46.149Z,38.62
2019-03-30T12:07:46.140Z,37.12
2019-03-30T12:08:46.153Z,38.81
2019-03-30T12:09:46.116Z,38.60
2019-03-30T12:10:46.121Z,38.99
2019-03-30T12:11:46.129Z,38.47
2019-03-30T12:12:46.087Z,37.07
2019-03-30T12:13:46.095Z,37.35
2019-03-30T12:14:46.060Z,36.63
2019-03-30T12:15:46.046Z,37.53
2019-03-30T12:16:46.065Z,37.11
2019-03-30T12:17:46.056Z,36.71
2019-03-30T12:18:46.014Z,35.61
2019-03-30T12:19:46.006Z,36.71
2019-03-30T12:20:45.996Z,36.10
2019-03-30T12:21:45.991Z,37.18
2019-03-30T12:22:45.974Z,35.56
2019-03-30T12:23:46.004Z,35.56
2019-03-30T12:24:45.967Z,34.76
2019-03-30T12:25:45.940Z,34.94
2019-03-30T12:26:45.927Z,34.96
2019-03-30T12:27:45.979Z,34.96
2019-03-30T12:28:45.906Z,35.96
2019-03-30T12:29:45.950Z,34.83
2019-03-30T12:30:45.882Z,35.51
2019-03-30T12:31:45.871Z,34.80
2019-03-30T12:32:45.906Z,34.76
2019-03-30T12:33:45.852Z,34.23
2019-03-30T12:34:45.857Z,33.14
2019-03-30T12:35:45.895Z,33.07
2019-03-30T12:36:45.828Z,33.73
2019-03-30T12:37:45.813Z,35.41
2019-03-30T12:38:45.813Z,34.28
2019-03-30T12:39:45.794Z,35.14
2019-03-30T12:40:45.791Z,33.85
2019-03-30T12:41:45.804Z,33.04
2019-03-30T12:42:45.755Z,33.05
2019-03-30T12:43:45.749Z,34.00
2019-03-30T12:44:45.739Z,34.18
2019-03-30T12:45:45.743Z,34.64
2019-03-30T12:46:45.720Z,33.25
2019-03-30T12:47:45.792Z,32.77
2019-03-30T12:48:45.693Z,32.35
2019-03-30T12:49:45.686Z,32.80
2019-03-30T12:50:45.819Z,34.31
2019-03-30T12:51:45.710Z,34.01
2019-03-30T12:52:45.667Z,33.23